Time;durP1;ratioP1;P1;durP2;ratioP2;P2;SDS_P1;SDS_P2;PMS_P1;PMS_P2;Temp;Humidity;BMP_temperature;BMP_pressure;BME280_temperature;BME280_humidity;BME280_pressure;Samples;Min_cycle;Max_cycle;Signal;HPM_P1;HPM_P2
2022/10/08 00:01:11;;;;;;;7.57;2.28;;;13.00;99.90;;;;;;5135512;27;20035;-65
2022/10/08 00:03:42;;;;;;;8.93;2.13;;;13.10;99.90;;;;;;5134318;27;20047;-65
2022/10/08 00:06:11;;;;;;;7.30;2.47;;;13.10;99.90;;;;;;5135072;27;20046;-65
2022/10/08 00:08:39;;;;;;;9.75;2.35;;;13.10;99.90;;;;;;5135543;27;20047;-66
2022/10/08 00:11:12;;;;;;;5.35;2.22;;;13.10;99.90;;;;;;5135397;27;20141;-65
2022/10/08 00:13:40;;;;;;;5.85;2.40;;;13.10;99.90;;;;;;5135179;27;20143;-66
2022/10/08 00:16:30;;;;;;;5.93;2.70;;;13.10;99.90;;;;;;5134992;27;20547;-65
2022/10/08 00:19:00;;;;;;;7.05;2.15;;;13.10;99.90;;;;;;5135367;27;20062;-66
2022/10/08 00:21:28;;;;;;;7.13;1.85;;;13.10;99.90;;;;;;5135365;27;20038;-65
2022/10/08 00:23:55;;;;;;;7.18;1.90;;;13.20;99.90;;;;;;5134694;27;20495;-66
2022/10/08 00:26:23;;;;;;;5.68;2.00;;;13.20;99.90;;;;;;5134928;27;20039;-65
2022/10/08 00:28:50;;;;;;;6.25;2.50;;;13.10;99.90;;;;;;5133776;27;20092;-65
2022/10/08 00:31:19;;;;;;;6.22;1.90;;;13.10;99.90;;;;;;5134861;27;20039;-66
2022/10/08 00:33:49;;;;;;;7.90;1.90;;;13.00;99.90;;;;;;5134642;27;20101;-66
2022/10/08 00:36:14;;;;;;;6.07;2.03;;;13.00;99.90;;;;;;5134683;27;20176;-65
2022/10/08 00:38:40;;;;;;;7.45;1.90;;;13.00;99.90;;;;;;5134633;27;20109;-65
2022/10/08 00:41:15;;;;;;;9.25;2.25;;;13.00;99.90;;;;;;5134568;27;20035;-66
2022/10/08 00:43:44;;;;;;;6.68;2.10;;;12.90;99.90;;;;;;5134366;27;20049;-66
2022/10/08 00:46:42;;;;;;;9.07;2.20;;;12.90;99.90;;;;;;5134369;27;20046;-66
2022/10/08 00:49:21;;;;;;;6.55;2.13;;;12.90;99.90;;;;;;5134573;27;20043;-65
2022/10/08 00:51:51;;;;;;;8.50;2.58;;;12.80;99.90;;;;;;5134459;27;20044;-66
2022/10/08 00:54:19;;;;;;;7.30;2.47;;;12.80;99.90;;;;;;5134437;27;20042;-66
2022/10/08 00:56:50;;;;;;;10.85;2.60;;;12.80;99.90;;;;;;5134520;27;20035;-66
2022/10/08 00:59:16;;;;;;;5.97;2.30;;;12.80;99.90;;;;;;5134297;27;20078;-66
2022/10/08 01:01:42;;;;;;;7.70;2.35;;;12.80;99.90;;;;;;5134363;27;20121;-66
2022/10/08 01:04:10;;;;;;;7.57;2.72;;;12.80;99.90;;;;;;5133911;27;20058;-66
2022/10/08 01:07:01;;;;;;;8.98;2.70;;;12.70;99.90;;;;;;5133510;27;20176;-66
2022/10/08 01:09:40;;;;;;;7.20;2.72;;;12.70;99.90;;;;;;5133843;27;20441;-66
2022/10/08 01:12:18;;;;;;;10.15;2.55;;;12.70;99.90;;;;;;5134009;27;20408;-66
2022/10/08 01:14:59;;;;;;;3.88;2.30;;;12.70;99.90;;;;;;5133695;27;20484;-66
2022/10/08 01:17:55;;;;;;;5.95;2.45;;;12.70;99.90;;;;;;5134030;27;20038;-66
2022/10/08 01:20:43;;;;;;;9.30;2.38;;;12.70;99.90;;;;;;5133838;27;20088;-66
2022/10/08 01:23:46;;;;;;;8.27;2.65;;;12.70;99.90;;;;;;5134000;27;20043;-66
2022/10/08 01:26:23;;;;;;;;;;;12.70;99.90;;;;;;5134233;27;20046;-66
2022/10/08 01:28:58;;;;;;;3.72;2.00;;;12.70;99.90;;;;;;5133714;27;19991;-66
2022/10/08 01:31:28;;;;;;;9.20;2.30;;;12.60;99.90;;;;;;5133825;27;20046;-66
2022/10/08 01:34:00;;;;;;;4.13;2.17;;;12.70;99.90;;;;;;5133190;27;20039;-66
2022/10/08 01:36:28;;;;;;;;;;;12.70;99.90;;;;;;5132957;27;20124;-66
2022/10/08 01:38:59;;;;;;;6.03;2.65;;;12.70;99.90;;;;;;5133797;27;19915;-65
2022/10/08 01:41:28;;;;;;;5.03;2.22;;;12.70;99.90;;;;;;5133580;27;20510;-66
2022/10/08 01:44:01;;;;;;;5.72;2.70;;;12.70;99.90;;;;;;5133325;27;20039;-66
2022/10/08 01:46:29;;;;;;;7.18;2.88;;;12.70;99.90;;;;;;5133486;27;20092;-66
2022/10/08 01:49:06;;;;;;;2.72;2.25;;;12.60;99.90;;;;;;5133334;27;20372;-65
2022/10/08 01:51:49;;;;;;;7.88;2.53;;;12.70;99.90;;;;;;5133321;27;20406;-66
2022/10/08 01:54:16;;;;;;;6.13;3.00;;;12.70;99.90;;;;;;5135127;27;20039;-66
2022/10/08 01:56:44;;;;;;;7.93;3.08;;;12.70;99.90;;;;;;5154016;27;20041;-65
2022/10/08 01:59:16;;;;;;;6.28;2.88;;;12.70;99.90;;;;;;5153953;27;20039;-66
2022/10/08 02:02:08;;;;;;;8.07;3.03;;;12.70;99.90;;;;;;5153938;27;20051;-66
2022/10/08 02:04:36;;;;;;;5.80;2.25;;;12.70;99.90;;;;;;5153636;27;20062;-65
2022/10/08 02:07:15;;;;;;;6.05;2.80;;;12.70;99.90;;;;;;5153891;27;20042;-66
2022/10/08 02:09:52;;;;;;;8.02;2.90;;;12.60;99.90;;;;;;5153487;27;20115;-65
2022/10/08 02:12:19;;;;;;;4.88;2.50;;;12.70;99.90;;;;;;5153572;27;20046;-65
2022/10/08 02:14:51;;;;;;;6.47;2.80;;;12.70;99.90;;;;;;5153510;27;20478;-65
2022/10/08 02:17:35;;;;;;;6.32;2.95;;;12.70;99.90;;;;;;5153676;27;20375;-66
2022/10/08 02:20:29;;;;;;;4.57;2.35;;;12.70;99.90;;;;;;5152670;27;20066;-65
2022/10/08 02:23:01;;;;;;;3.35;2.22;;;12.70;99.90;;;;;;5153749;27;20042;-65
2022/10/08 02:25:29;;;;;;;3.20;2.25;;;12.70;99.90;;;;;;5153292;27;20050;-66
2022/10/08 02:28:24;;;;;;;4.35;2.40;;;12.60;99.90;;;;;;5153486;27;20034;-65
2022/10/08 02:30:56;;;;;;;6.00;2.13;;;12.70;99.90;;;;;;5153363;27;20046;-65
2022/10/08 02:33:34;;;;;;;2.28;2.00;;;12.70;99.90;;;;;;5153598;27;20039;-66
2022/10/08 02:36:03;;;;;;;7.65;2.58;;;12.70;99.90;;;;;;5153200;27;20057;-65
2022/10/08 02:38:37;;;;;;;5.60;3.00;;;12.70;99.90;;;;;;5153444;27;20031;-66
2022/10/08 02:41:04;;;;;;;5.70;2.30;;;12.70;99.90;;;;;;5153300;27;20031;-66
2022/10/08 02:43:34;;;;;;;3.83;2.00;;;12.70;99.90;;;;;;5153195;27;20046;-66
2022/10/08 02:46:09;;;;;;;4.70;2.17;;;12.70;99.90;;;;;;5153461;27;20059;-65
2022/10/08 02:48:36;;;;;;;2.97;1.95;;;12.70;99.90;;;;;;5153318;27;20039;-66
2022/10/08 02:51:09;;;;;;;3.70;2.10;;;12.70;99.90;;;;;;5153270;27;20404;-65
2022/10/08 02:53:38;;;;;;;6.97;2.17;;;12.70;99.90;;;;;;5152916;27;20439;-66
2022/10/08 02:56:35;;;;;;;3.45;1.75;;;12.70;99.90;;;;;;5153120;27;20037;-66
2022/10/08 02:59:02;;;;;;;3.65;2.30;;;12.70;99.90;;;;;;5153231;27;20039;-66
2022/10/08 03:01:46;;;;;;;3.47;2.15;;;12.70;99.90;;;;;;5153043;27;20518;-66
2022/10/08 03:04:20;;;;;;;4.38;2.47;;;12.70;99.90;;;;;;5152825;27;20113;-65
2022/10/08 03:06:47;;;;;;;4.05;2.00;;;12.60;99.90;;;;;;5153232;27;20042;-66
2022/10/08 03:09:15;;;;;;;3.90;2.20;;;12.60;99.90;;;;;;5153074;27;20506;-65
2022/10/08 03:11:41;;;;;;;5.35;1.92;;;12.60;99.90;;;;;;5152899;27;20159;-65
2022/10/08 03:14:11;;;;;;;4.13;2.33;;;12.50;99.90;;;;;;5152772;27;20117;-65
2022/10/08 03:16:45;;;;;;;5.40;2.03;;;12.50;99.90;;;;;;5152734;27;20045;-66
2022/10/08 03:19:15;;;;;;;5.60;2.03;;;12.50;99.90;;;;;;5153146;27;20083;-66
2022/10/08 03:21:42;;;;;;;5.00;2.00;;;12.50;99.90;;;;;;5153080;27;20106;-66
2022/10/08 03:24:10;;;;;;;5.43;2.22;;;12.40;99.90;;;;;;5152592;27;20494;-65
2022/10/08 03:26:35;;;;;;;3.45;2.20;;;12.40;99.90;;;;;;5151645;27;20039;-66
2022/10/08 03:29:03;;;;;;;5.13;2.15;;;12.40;99.90;;;;;;5152808;27;20045;-65
2022/10/08 03:31:28;;;;;;;5.25;1.73;;;12.40;99.90;;;;;;5155696;27;20462;-65
2022/10/08 03:33:54;;;;;;;4.95;1.90;;;12.40;99.90;;;;;;5155255;27;20031;-66
2022/10/08 03:36:22;;;;;;;4.53;2.35;;;12.30;99.90;;;;;;5156711;27;20035;-66
2022/10/08 03:38:48;;;;;;;3.40;2.15;;;12.30;99.90;;;;;;5156738;27;20070;-66
2022/10/08 03:41:14;;;;;;;4.47;2.28;;;12.30;99.90;;;;;;5156560;27;20031;-65
2022/10/08 03:43:40;;;;;;;5.30;2.28;;;12.20;99.90;;;;;;5156449;27;20069;-65
2022/10/08 03:46:08;;;;;;;2.15;1.95;;;12.20;99.90;;;;;;5156520;27;20450;-66
2022/10/08 03:48:34;;;;;;;5.53;2.25;;;12.20;99.90;;;;;;5156554;27;20394;-66
2022/10/08 03:51:03;;;;;;;5.38;2.08;;;12.20;99.90;;;;;;5156587;27;20045;-65
2022/10/08 03:53:32;;;;;;;2.92;1.77;;;12.10;99.90;;;;;;5156323;27;20398;-65
2022/10/08 03:56:02;;;;;;;2.97;1.90;;;12.10;99.90;;;;;;5156061;27;20031;-65
2022/10/08 03:58:28;;;;;;;4.13;2.15;;;12.10;99.90;;;;;;5156009;27;20039;-66
2022/10/08 04:00:57;;;;;;;4.22;2.13;;;12.10;99.90;;;;;;5156371;27;20041;-66
2022/10/08 04:03:23;;;;;;;7.15;1.88;;;12.10;99.90;;;;;;5156278;27;20038;-66
2022/10/08 04:05:49;;;;;;;4.45;2.03;;;12.10;99.90;;;;;;5155924;27;20110;-66
2022/10/08 04:08:15;;;;;;;4.40;2.05;;;12.10;99.90;;;;;;5155709;27;20478;-66
2022/10/08 04:10:40;;;;;;;3.63;2.10;;;12.00;99.90;;;;;;5156076;27;20451;-65
2022/10/08 04:13:06;;;;;;;4.88;2.40;;;12.00;99.90;;;;;;5155759;27;20126;-66
2022/10/08 04:15:31;;;;;;;6.28;2.40;;;12.00;99.90;;;;;;5155691;27;20038;-66
2022/10/08 04:17:57;;;;;;;2.92;2.30;;;12.00;99.90;;;;;;5155763;27;20034;-65
2022/10/08 04:20:23;;;;;;;4.82;2.50;;;12.00;99.90;;;;;;5155759;27;20042;-65
2022/10/08 04:22:48;;;;;;;4.95;2.03;;;12.00;99.90;;;;;;5154737;27;20045;-66
2022/10/08 04:25:14;;;;;;;6.35;2.30;;;11.90;99.90;;;;;;5155574;27;20042;-66
2022/10/08 04:27:39;;;;;;;4.78;2.53;;;11.90;99.90;;;;;;5155702;27;20049;-65
2022/10/08 04:30:06;;;;;;;7.65;2.50;;;11.90;99.90;;;;;;5155665;27;20035;-66
2022/10/08 04:32:31;;;;;;;7.50;3.05;;;12.00;99.90;;;;;;5154320;27;20406;-65
2022/10/08 04:34:57;;;;;;;9.80;2.80;;;11.90;99.90;;;;;;5155150;27;20031;-66
2022/10/08 04:37:22;;;;;;;10.57;3.13;;;12.00;99.90;;;;;;5155381;27;20102;-66
2022/10/08 04:39:48;;;;;;;8.82;3.15;;;12.00;99.90;;;;;;5155555;27;20076;-66
2022/10/08 04:42:14;;;;;;;8.80;2.95;;;12.00;99.90;;;;;;5154513;27;20031;-66
2022/10/08 04:44:39;;;;;;;3.08;2.10;;;12.00;99.90;;;;;;5155026;27;20038;-66
2022/10/08 04:47:05;;;;;;;3.85;2.75;;;12.00;99.90;;;;;;5155299;27;20066;-66
2022/10/08 04:49:30;;;;;;;6.15;2.70;;;12.00;99.90;;;;;;5153950;27;20521;-66
2022/10/08 04:51:56;;;;;;;5.40;2.20;;;12.00;99.90;;;;;;5155299;27;20031;-66
2022/10/08 04:54:22;;;;;;;7.70;2.38;;;12.00;99.90;;;;;;5154949;27;20087;-65
2022/10/08 04:56:47;;;;;;;9.15;2.50;;;12.00;99.90;;;;;;5155127;27;20038;-65
2022/10/08 04:59:13;;;;;;;4.82;2.67;;;12.10;99.90;;;;;;5154795;27;20035;-65
2022/10/08 05:01:38;;;;;;;5.22;2.33;;;12.10;99.90;;;;;;5154952;27;20023;-65
2022/10/08 05:04:04;;;;;;;3.65;2.47;;;12.10;99.90;;;;;;5154520;27;20091;-65
2022/10/08 05:06:31;;;;;;;10.30;2.50;;;12.10;99.90;;;;;;5154948;27;20510;-65
2022/10/08 05:09:01;;;;;;;6.93;3.05;;;12.10;99.90;;;;;;5154538;27;20042;-65
2022/10/08 05:11:27;;;;;;;2.97;2.30;;;12.10;99.90;;;;;;5136251;27;20550;-65
2022/10/08 05:13:54;;;;;;;6.13;2.47;;;12.10;99.90;;;;;;5154206;27;20038;-65
2022/10/08 05:16:20;;;;;;;5.38;2.55;;;12.10;99.90;;;;;;5154547;27;20042;-65
2022/10/08 05:18:46;;;;;;;8.27;2.58;;;12.10;99.90;;;;;;5154824;27;20042;-65
2022/10/08 05:21:15;;;;;;;5.07;2.40;;;12.00;99.90;;;;;;5154809;27;20376;-65
2022/10/08 05:23:44;;;;;;;2.70;2.03;;;12.10;99.90;;;;;;5154476;27;20383;-65
2022/10/08 05:26:22;;;;;;;4.03;2.15;;;12.10;99.90;;;;;;5154583;27;20388;-65
2022/10/08 05:28:48;;;;;;;7.20;2.47;;;12.10;99.90;;;;;;5154262;27;20164;-65
2022/10/08 05:31:14;;;;;;;6.90;2.40;;;12.10;99.90;;;;;;5154617;27;20040;-65
2022/10/08 05:33:40;;;;;;;4.95;2.17;;;12.00;99.90;;;;;;5153085;27;20092;-65
2022/10/08 05:36:09;;;;;;;8.10;2.03;;;12.10;99.90;;;;;;5154228;27;20039;-65
2022/10/08 05:38:34;;;;;;;2.88;2.20;;;12.10;99.90;;;;;;5154366;27;20035;-65
2022/10/08 05:41:11;;;;;;;5.80;2.03;;;12.10;99.90;;;;;;5154179;27;20126;-65
2022/10/08 05:43:37;;;;;;;5.65;1.83;;;12.10;99.90;;;;;;5154430;27;20070;-65
2022/10/08 05:46:03;;;;;;;3.92;1.90;;;12.00;99.90;;;;;;5132461;27;20070;-65
2022/10/08 05:48:29;;;;;;;5.07;2.08;;;12.10;99.90;;;;;;5151328;27;20050;-65
2022/10/08 05:50:54;;;;;;;7.22;2.15;;;12.10;99.90;;;;;;5153051;27;20109;-65
2022/10/08 05:53:20;;;;;;;4.38;1.83;;;12.00;99.90;;;;;;5153199;27;20486;-65
2022/10/08 05:55:45;;;;;;;7.20;2.42;;;12.00;99.90;;;;;;5152424;27;20494;-66
2022/10/08 05:58:11;;;;;;;7.45;2.20;;;12.00;99.90;;;;;;5153094;27;20540;-65
2022/10/08 06:00:36;;;;;;;3.50;2.25;;;11.90;99.90;;;;;;5154112;27;20117;-65
2022/10/08 06:03:02;;;;;;;8.95;2.40;;;12.00;99.90;;;;;;5154040;27;20122;-65
2022/10/08 06:05:28;;;;;;;3.35;2.20;;;11.90;99.90;;;;;;5153579;27;20045;-65
2022/10/08 06:07:56;;;;;;;11.15;2.40;;;11.90;99.90;;;;;;5153832;27;20092;-65
2022/10/08 06:10:23;;;;;;;5.10;2.38;;;11.90;99.90;;;;;;5153484;27;20042;-65
2022/10/08 06:12:49;;;;;;;4.22;2.17;;;11.80;99.90;;;;;;5153569;27;20490;-65
2022/10/08 06:15:14;;;;;;;6.10;2.50;;;11.80;99.90;;;;;;5153285;27;20034;-65
2022/10/08 06:17:40;;;;;;;5.88;2.08;;;11.90;99.90;;;;;;5153619;27;20067;-65
2022/10/08 06:20:06;;;;;;;4.45;2.40;;;11.70;99.90;;;;;;5153638;27;20057;-65
2022/10/08 06:22:31;;;;;;;7.22;2.42;;;11.80;99.90;;;;;;5153594;27;20042;-65
2022/10/08 06:24:57;;;;;;;4.70;2.70;;;11.80;99.90;;;;;;5134570;27;20046;-65
2022/10/08 06:27:22;;;;;;;4.63;2.40;;;11.80;99.90;;;;;;5153640;27;20042;-65
2022/10/08 06:29:48;;;;;;;8.82;3.35;;;11.80;99.90;;;;;;5134888;27;20039;-65
2022/10/08 06:32:13;;;;;;;6.15;3.03;;;11.80;99.90;;;;;;5152100;27;20047;-65
2022/10/08 06:34:40;;;;;;;4.25;2.33;;;11.80;99.90;;;;;;5153165;27;20133;-65
2022/10/08 06:37:06;;;;;;;4.05;2.65;;;11.80;99.90;;;;;;5153358;27;20097;-65
2022/10/08 06:39:32;;;;;;;7.78;2.85;;;11.90;99.90;;;;;;5153147;27;20482;-65
2022/10/08 06:41:57;;;;;;;4.30;2.85;;;11.80;99.90;;;;;;5153410;27;20031;-65
2022/10/08 06:44:23;;;;;;;5.72;2.80;;;11.80;99.90;;;;;;5153237;27;20037;-65
2022/10/08 06:46:49;;;;;;;4.18;2.45;;;11.90;99.90;;;;;;5153334;27;20034;-65
2022/10/08 06:49:14;;;;;;;5.57;2.60;;;11.80;99.90;;;;;;5153321;27;20099;-65
2022/10/08 06:51:40;;;;;;;5.97;2.70;;;11.90;99.90;;;;;;5153302;27;20039;-65
2022/10/08 06:54:05;;;;;;;3.65;2.50;;;11.80;99.90;;;;;;5152854;27;20056;-65
2022/10/08 06:56:32;;;;;;;4.05;2.63;;;11.80;99.90;;;;;;5153215;27;20079;-65
2022/10/08 06:58:58;;;;;;;7.50;2.90;;;11.80;99.90;;;;;;5153211;27;20394;-65
2022/10/08 07:01:27;;;;;;;10.25;3.92;;;11.80;99.90;;;;;;5153207;27;20045;-65
2022/10/08 07:03:56;;;;;;;4.05;2.70;;;11.90;99.90;;;;;;5151800;27;20069;-65
2022/10/08 07:06:22;;;;;;;8.63;3.10;;;11.90;99.90;;;;;;5155980;27;20042;-65
2022/10/08 07:08:54;;;;;;;5.35;2.78;;;11.90;99.90;;;;;;5138133;27;20095;-65
2022/10/08 07:11:20;;;;;;;11.38;3.40;;;11.90;99.90;;;;;;5157116;27;20442;-65
2022/10/08 07:13:46;;;;;;;6.10;2.75;;;11.90;99.90;;;;;;5155584;27;20083;-65
2022/10/08 07:16:19;;;;;;;4.88;2.50;;;11.90;99.90;;;;;;5150793;27;20038;-65
2022/10/08 07:18:46;;;;;;;7.32;3.15;;;12.00;99.90;;;;;;5146824;27;20038;-65
2022/10/08 07:21:14;;;;;;;6.05;2.72;;;12.00;99.90;;;;;;5136313;27;20118;-65
2022/10/08 07:23:39;;;;;;;5.35;2.92;;;12.10;99.90;;;;;;5136295;27;20478;-66
2022/10/08 07:26:33;;;;;;;8.40;3.03;;;12.00;99.90;;;;;;5135936;27;20078;-66
2022/10/08 07:29:07;;;;;;;3.05;2.53;;;12.10;99.90;;;;;;5131236;27;20090;-67
2022/10/08 07:31:37;;;;;;;8.27;3.13;;;12.10;99.90;;;;;;5136289;27;20042;-66
2022/10/08 07:34:05;;;;;;;11.10;2.90;;;12.20;99.90;;;;;;5135909;27;20075;-67
2022/10/08 07:36:31;;;;;;;12.43;2.78;;;12.20;99.90;;;;;;5135944;27;20031;-67
2022/10/08 07:39:02;;;;;;;6.70;2.90;;;12.20;99.90;;;;;;5135897;27;20114;-67
2022/10/08 07:41:28;;;;;;;8.15;2.92;;;12.30;99.90;;;;;;5136114;27;20066;-67
2022/10/08 07:43:58;;;;;;;6.35;2.58;;;12.30;99.90;;;;;;5135712;27;20085;-67
2022/10/08 07:46:25;;;;;;;6.15;2.65;;;12.30;99.90;;;;;;5135822;27;20035;-66
2022/10/08 07:48:53;;;;;;;8.35;2.80;;;12.40;99.90;;;;;;5135665;27;20051;-67
2022/10/08 07:51:19;;;;;;;7.22;2.42;;;12.40;99.90;;;;;;5134564;27;20048;-67
2022/10/08 07:53:45;;;;;;;5.57;2.78;;;12.50;99.90;;;;;;5142167;27;20039;-67
2022/10/08 07:56:13;;;;;;;6.95;2.42;;;12.50;99.90;;;;;;5144477;27;20069;-67
2022/10/08 07:58:40;;;;;;;7.75;2.45;;;12.60;99.90;;;;;;5156186;27;20218;-67
2022/10/08 08:01:07;;;;;;;6.72;2.20;;;12.60;99.90;;;;;;5156345;27;20066;-67
2022/10/08 08:03:33;;;;;;;6.80;2.42;;;12.60;99.90;;;;;;5156188;27;20482;-67
2022/10/08 08:06:00;;;;;;;5.85;1.92;;;12.60;99.90;;;;;;5155880;27;20117;-67
2022/10/08 08:08:26;;;;;;;8.85;2.15;;;12.60;99.90;;;;;;5155578;27;20042;-66
2022/10/08 08:10:58;;;;;;;5.72;2.03;;;12.60;99.90;;;;;;5156099;27;20039;-66
2022/10/08 08:13:24;;;;;;;6.60;2.40;;;12.70;99.90;;;;;;5156050;27;20041;-66
2022/10/08 08:16:01;;;;;;;4.68;2.20;;;12.70;99.90;;;;;;5155494;27;20031;-65
2022/10/08 08:18:29;;;;;;;4.35;2.10;;;12.80;99.90;;;;;;5154847;27;20046;-65
2022/10/08 08:21:06;;;;;;;4.75;2.20;;;12.80;99.90;;;;;;5156054;27;20046;-65
2022/10/08 08:23:34;;;;;;;7.65;2.20;;;12.80;99.90;;;;;;5137230;27;20053;-65
2022/10/08 08:26:12;;;;;;;7.00;2.38;;;12.80;99.90;;;;;;5136695;27;20042;-65
2022/10/08 08:28:38;;;;;;;8.80;2.70;;;12.80;99.90;;;;;;5155552;27;20041;-65
2022/10/08 08:31:13;;;;;;;6.38;2.67;;;12.90;99.90;;;;;;5137323;27;20102;-65
2022/10/08 08:33:39;;;;;;;7.40;2.47;;;12.90;99.90;;;;;;5155522;27;20615;-65
2022/10/08 08:36:05;;;;;;;6.78;2.03;;;12.90;99.90;;;;;;5155401;27;20046;-65
2022/10/08 08:38:34;;;;;;;8.90;2.80;;;12.90;99.90;;;;;;5155363;27;20538;-65
2022/10/08 08:41:31;;;;;;;5.35;1.30;;;13.00;99.90;;;;;;5155387;27;20134;-65
2022/10/08 08:44:18;;;;;;;3.95;1.70;;;13.00;99.90;;;;;;5126323;27;20049;-65
2022/10/08 08:46:50;;;;;;;5.38;1.67;;;13.00;99.90;;;;;;5155404;27;20039;-65
2022/10/08 08:49:44;;;;;;;5.63;1.30;;;13.00;99.90;;;;;;5155383;27;20398;-65
2022/10/08 08:52:14;;;;;;;8.27;2.00;;;13.10;99.90;;;;;;5155362;27;20050;-65
2022/10/08 08:54:40;;;;;;;2.67;1.40;;;13.20;99.90;;;;;;5154994;27;20035;-66
2022/10/08 08:57:25;;;;;;;8.10;1.23;;;13.20;99.90;;;;;;5155133;27;20110;-64
2022/10/08 08:59:55;;;;;;;7.75;1.73;;;13.20;99.90;;;;;;5155015;27;20041;-65
2022/10/08 09:02:30;;;;;;;7.50;1.95;;;13.20;99.90;;;;;;5154989;27;20039;-65
2022/10/08 09:04:59;;;;;;;2.00;1.35;;;13.30;99.90;;;;;;5154750;27;20030;-64
2022/10/08 09:07:32;;;;;;;4.63;1.90;;;13.30;99.90;;;;;;5154931;27;20037;-65
2022/10/08 09:09:58;;;;;;;10.93;2.55;;;13.40;99.90;;;;;;5154940;27;20027;-64
2022/10/08 09:12:36;;;;;;;6.40;2.00;;;13.40;99.90;;;;;;5154731;27;20514;-65
2022/10/08 09:15:04;;;;;;;4.82;1.48;;;13.50;99.90;;;;;;5154442;27;20494;-65
2022/10/08 09:17:38;;;;;;;6.78;1.30;;;13.40;99.90;;;;;;5154576;27;20577;-65
2022/10/08 09:20:04;;;;;;;2.35;1.10;;;13.50;99.90;;;;;;5154642;27;20490;-67
2022/10/08 09:22:35;;;;;;;6.60;1.23;;;13.60;99.90;;;;;;5154514;27;20129;-67
2022/10/08 09:25:16;;;;;;;9.68;1.98;;;13.60;99.90;;;;;;5154340;27;20038;-67
2022/10/08 09:27:51;;;;;;;3.20;1.33;;;13.70;99.90;;;;;;5154189;27;20455;-65
2022/10/08 09:30:23;;;;;;;2.08;1.02;;;13.80;99.90;;;;;;5154626;27;20034;-65
2022/10/08 09:32:49;;;;;;;3.90;1.10;;;13.80;99.90;;;;;;5153188;27;20448;-66
2022/10/08 09:35:15;;;;;;;5.18;1.52;;;13.70;99.90;;;;;;5154122;27;20087;-66
2022/10/08 09:37:45;;;;;;;4.85;1.10;;;13.70;99.90;;;;;;5154553;27;20031;-66
2022/10/08 09:40:10;;;;;;;6.82;1.55;;;13.70;99.90;;;;;;5154715;27;20060;-66
2022/10/08 09:42:36;;;;;;;2.72;0.95;;;13.70;99.90;;;;;;5154398;27;20514;-66
2022/10/08 09:45:17;;;;;;;4.40;1.20;;;13.80;99.90;;;;;;5154062;27;20046;-67
2022/10/08 09:47:42;;;;;;;1.80;0.98;;;13.90;99.90;;;;;;5154189;27;20045;-66
2022/10/08 09:50:18;;;;;;;3.20;1.25;;;13.80;99.90;;;;;;5154086;27;20451;-66
2022/10/08 09:52:48;;;;;;;0.95;0.85;;;13.90;99.90;;;;;;5154112;27;20035;-66
2022/10/08 09:55:14;;;;;;;2.65;1.35;;;13.90;99.90;;;;;;5153940;27;20031;-66
2022/10/08 09:57:48;;;;;;;4.55;0.95;;;13.80;99.90;;;;;;5153996;27;20027;-66
2022/10/08 10:00:24;;;;;;;5.30;0.82;;;13.80;99.90;;;;;;5154018;27;20554;-66
2022/10/08 10:02:55;;;;;;;3.20;1.23;;;13.80;99.90;;;;;;5154169;27;20038;-66
2022/10/08 10:05:24;;;;;;;3.42;1.88;;;13.80;99.90;;;;;;5153511;27;20578;-66
2022/10/08 10:07:49;;;;;;;5.47;1.58;;;13.90;99.90;;;;;;5153489;27;20465;-66
2022/10/08 10:10:27;;;;;;;3.70;0.90;;;14.00;99.90;;;;;;5153731;27;20117;-66
2022/10/08 10:13:16;;;;;;;7.22;1.73;;;14.10;99.90;;;;;;5152350;27;20095;-66
2022/10/08 10:15:58;;;;;;;3.40;0.93;;;14.20;99.90;;;;;;5152204;27;20087;-66
2022/10/08 10:18:44;;;;;;;4.07;1.17;;;14.40;99.90;;;;;;5134952;27;20403;-66
2022/10/08 10:21:16;;;;;;;5.25;1.13;;;14.50;99.90;;;;;;5153863;27;20371;-66
2022/10/08 10:24:23;;;;;;;3.45;0.70;;;14.60;99.90;;;;;;5153512;27;20038;-66
2022/10/08 10:26:50;;;;;;;4.22;0.95;;;14.50;99.90;;;;;;5153225;27;20051;-66
2022/10/08 10:29:23;;;;;;;4.95;3.22;;;14.50;99.90;;;;;;5153629;27;20121;-69
2022/10/08 10:31:58;;;;;;;3.05;0.77;;;14.60;99.90;;;;;;5153610;27;20087;-65
2022/10/08 10:34:27;;;;;;;0.85;0.85;;;14.70;99.90;;;;;;5153272;27;20042;-65
2022/10/08 10:36:59;;;;;;;7.07;1.20;;;14.80;99.90;;;;;;5134715;27;20502;-65
2022/10/08 10:39:37;;;;;;;3.33;0.85;;;14.80;99.90;;;;;;5152898;27;20398;-66
2022/10/08 10:42:44;;;;;;;1.88;0.95;;;15.00;99.90;;;;;;5134766;27;20053;-65
2022/10/08 10:45:12;;;;;;;5.85;0.70;;;15.10;99.90;;;;;;5152414;27;20175;-65
2022/10/08 10:47:38;;;;;;;5.38;1.60;;;15.10;99.90;;;;;;5153118;27;20038;-64
2022/10/08 10:50:11;;;;;;;3.45;1.58;;;15.10;99.90;;;;;;5152782;27;20042;-65
2022/10/08 10:52:56;;;;;;;4.75;0.80;;;15.20;99.90;;;;;;5132588;27;20043;-65
2022/10/08 10:55:29;;;;;;;3.28;0.70;;;15.20;99.90;;;;;;5132294;27;20089;-65
2022/10/08 10:58:16;;;;;;;1.38;0.40;;;15.00;99.90;;;;;;5132271;27;20050;-65
2022/10/08 11:00:46;;;;;;;3.28;0.90;;;14.80;99.90;;;;;;5132444;27;20631;-65
2022/10/08 11:03:18;;;;;;;3.17;0.90;;;14.70;99.90;;;;;;5132702;27;20043;-65
2022/10/08 11:05:48;;;;;;;7.25;1.13;;;14.70;99.90;;;;;;5132226;27;20051;-66
2022/10/08 11:08:52;;;;;;;4.13;0.75;;;14.50;99.90;;;;;;5131826;27;20039;-66
2022/10/08 11:11:27;;;;;;;3.75;0.90;;;14.40;99.90;;;;;;5132389;28;20521;-66
2022/10/08 11:14:25;;;;;;;4.05;1.00;;;14.40;99.90;;;;;;5132027;27;20372;-66
2022/10/08 11:16:53;;;;;;;5.65;0.80;;;14.30;99.90;;;;;;5132517;27;20100;-67
2022/10/08 11:19:33;;;;;;;2.15;0.88;;;14.30;99.90;;;;;;5132406;28;20486;-65
2022/10/08 11:22:06;;;;;;;3.58;0.70;;;14.30;99.90;;;;;;5132393;28;20039;-65
2022/10/08 11:24:31;;;;;;;6.85;1.55;;;14.30;99.90;;;;;;5130799;28;20411;-65
2022/10/08 11:27:11;;;;;;;7.55;0.90;;;14.40;99.90;;;;;;5130901;28;20043;-65
2022/10/08 11:29:44;;;;;;;7.03;0.80;;;14.40;99.90;;;;;;5132465;27;20403;-65
2022/10/08 11:32:13;;;;;;;6.03;1.35;;;14.50;99.90;;;;;;5132311;27;20093;-65
2022/10/08 11:34:54;;;;;;;4.70;1.00;;;14.50;99.90;;;;;;5131933;27;20088;-65
2022/10/08 11:37:35;;;;;;;5.10;0.95;;;14.40;99.90;;;;;;5132183;27;20452;-65
2022/10/08 11:40:27;;;;;;;3.20;0.80;;;14.50;99.90;;;;;;5132045;27;20491;-65
2022/10/08 11:43:04;;;;;;;2.55;0.70;;;14.60;99.90;;;;;;5132276;27;20114;-65
2022/10/08 11:45:39;;;;;;;2.70;1.20;;;14.60;99.90;;;;;;5131766;27;20051;-65
2022/10/08 11:48:32;;;;;;;3.15;0.70;;;14.60;99.90;;;;;;5113671;28;20039;-65
2022/10/08 11:51:19;;;;;;;5.65;1.30;;;14.70;99.90;;;;;;5132622;27;20039;-65
2022/10/08 11:54:06;;;;;;;1.80;0.63;;;14.80;99.90;;;;;;5134031;27;20043;-65
2022/10/08 11:56:38;;;;;;;5.65;0.90;;;14.90;99.90;;;;;;5117269;27;20066;-65
2022/10/08 11:59:24;;;;;;;7.53;1.23;;;15.00;99.90;;;;;;5135660;27;20087;-65
2022/10/08 12:01:54;;;;;;;6.32;1.52;;;15.00;99.90;;;;;;5135585;27;20337;-65
2022/10/08 12:04:29;;;;;;;4.53;1.20;;;15.10;99.90;;;;;;5135339;27;20046;-65
2022/10/08 12:07:30;;;;;;;3.35;0.85;;;15.00;99.90;;;;;;5135656;27;20032;-65
2022/10/08 12:10:04;;;;;;;3.90;1.00;;;15.10;99.90;;;;;;5135229;27;20072;-65
2022/10/08 12:12:48;;;;;;;3.70;0.80;;;15.20;99.90;;;;;;5135214;27;20043;-65
2022/10/08 12:15:23;;;;;;;5.18;2.10;;;15.20;99.90;;;;;;5135117;27;20062;-65
2022/10/08 12:18:05;;;;;;;6.00;1.42;;;15.20;99.90;;;;;;5135280;27;20376;-65
2022/10/08 12:20:33;;;;;;;3.30;0.77;;;15.10;99.90;;;;;;5135255;27;20043;-65
2022/10/08 12:23:05;;;;;;;2.97;1.13;;;15.20;99.90;;;;;;5135156;27;20076;-65
2022/10/08 12:25:38;;;;;;;;;;;15.20;99.90;;;;;;5135404;27;20126;-64
2022/10/08 12:28:19;;;;;;;3.00;1.27;;;15.30;99.90;;;;;;5135166;27;19915;-65
2022/10/08 12:30:47;;;;;;;4.07;1.17;;;15.20;99.90;;;;;;5116529;27;20088;-65
2022/10/08 12:33:13;;;;;;;3.20;0.52;;;15.30;99.90;;;;;;5134875;27;20425;-65
2022/10/08 12:36:13;;;;;;;2.50;0.80;;;15.30;99.90;;;;;;5134811;27;20118;-65
2022/10/08 12:38:51;;;;;;;2.95;0.70;;;15.20;99.90;;;;;;5134916;27;20054;-65
2022/10/08 12:41:16;;;;;;;4.32;0.93;;;15.30;99.90;;;;;;5134908;27;20036;-65
2022/10/08 12:44:01;;;;;;;3.72;1.00;;;15.40;99.90;;;;;;5134489;27;20514;-65
2022/10/08 12:46:45;;;;;;;3.10;0.70;;;15.40;99.90;;;;;;5134631;27;20507;-65
2022/10/08 12:49:28;;;;;;;2.03;0.80;;;15.30;99.90;;;;;;5134802;27;20116;-65
2022/10/08 12:52:20;;;;;;;3.28;0.80;;;15.40;99.90;;;;;;5134643;27;20407;-65
2022/10/08 12:54:49;;;;;;;3.20;0.93;;;15.40;99.90;;;;;;5129354;27;20062;-65
2022/10/08 12:57:22;;;;;;;5.63;0.95;;;15.40;99.90;;;;;;5134539;27;20035;-65
2022/10/08 12:59:49;;;;;;;2.08;0.70;;;15.40;99.90;;;;;;5133083;27;20035;-65
2022/10/08 13:02:25;;;;;;;6.90;1.10;;;15.40;99.90;;;;;;5133982;27;20071;-65
2022/10/08 13:04:51;;;;;;;6.40;0.80;;;15.30;99.90;;;;;;5133991;27;20043;-65
2022/10/08 13:07:33;;;;;;;3.70;0.75;;;15.30;99.90;;;;;;5134353;27;20046;-65
2022/10/08 13:10:15;;;;;;;9.38;0.98;;;15.30;99.90;;;;;;5133655;27;20062;-65
2022/10/08 13:12:42;;;;;;;4.68;1.10;;;15.30;99.90;;;;;;5134160;27;20495;-65